createdAt,value
2019-01-30T00:00:41.514Z,-6.60
2019-01-30T00:03:09.963Z,-6.60
2019-01-30T00:05:38.392Z,-6.70
2019-01-30T00:08:07.210Z,-6.70
2019-01-30T00:10:35.623Z,-6.80
2019-01-30T00:13:04.142Z,-6.90
2019-01-30T00:15:32.694Z,-6.90
2019-01-30T00:18:01.222Z,-7.00
2019-01-30T00:20:29.640Z,-7.00
2019-01-30T00:22:58.097Z,-7.00
2019-01-30T00:25:26.534Z,-7.00
2019-01-30T00:27:54.971Z,-7.00
2019-01-30T00:30:25.540Z,-7.00
2019-01-30T00:32:54.052Z,-7.10
2019-01-30T00:35:22.532Z,-7.10
2019-01-30T00:37:51.019Z,-7.10
2019-01-30T00:40:21.698Z,-7.10
2019-01-30T00:42:50.383Z,-7.00
2019-01-30T00:45:21.106Z,-7.00
2019-01-30T00:47:49.690Z,-7.00
2019-01-30T00:50:23.386Z,-7.10
2019-01-30T00:52:52.177Z,-7.10
2019-01-30T00:55:20.865Z,-7.10
2019-01-30T00:57:49.280Z,-7.10
2019-01-30T01:00:20.530Z,-7.10
2019-01-30T01:02:49.391Z,-7.10
2019-01-30T01:05:18.069Z,-7.10
2019-01-30T01:07:46.731Z,-7.10
2019-01-30T01:10:19.746Z,-7.10
2019-01-30T01:12:48.570Z,-7.10
2019-01-30T01:15:17.455Z,-7.10
2019-01-30T01:17:46.123Z,-7.10
2019-01-30T01:20:20.083Z,-6.90
2019-01-30T01:22:48.594Z,-6.70
2019-01-30T01:25:17.814Z,-6.30
2019-01-30T01:27:46.570Z,-6.30
2019-01-30T01:30:25.286Z,-6.40
2019-01-30T01:32:51.175Z,-6.50
2019-01-30T01:35:19.845Z,-6.50
2019-01-30T01:37:48.551Z,-6.60
2019-01-30T01:40:17.410Z,-6.60
2019-01-30T01:42:45.928Z,-6.70
2019-01-30T01:45:19.266Z,-6.70
2019-01-30T01:47:47.778Z,-6.70
2019-01-30T01:50:18.089Z,-6.80
2019-01-30T01:52:46.650Z,-6.70
2019-01-30T01:55:15.270Z,-6.70
2019-01-30T01:57:43.717Z,-6.70
2019-01-30T02:00:19.898Z,-6.70
2019-01-30T02:02:48.417Z,-6.80
2019-01-30T02:05:18.882Z,-6.80
2019-01-30T02:07:47.466Z,-6.90
2019-01-30T02:10:23.540Z,-6.90
2019-01-30T02:12:52.150Z,-6.90
2019-01-30T02:15:22.987Z,-6.90
2019-01-30T02:17:52.366Z,-7.00
2019-01-30T02:20:23.335Z,-7.00
2019-01-30T02:22:51.845Z,-7.00
2019-01-30T02:25:20.343Z,-7.10
2019-01-30T02:27:48.788Z,-7.10
2019-01-30T02:30:20.297Z,-7.10
2019-01-30T02:32:48.867Z,-7.20
2019-01-30T02:35:17.528Z,-7.20
2019-01-30T02:37:46.043Z,-7.20
2019-01-30T02:40:16.511Z,-7.30
2019-01-30T02:42:45.126Z,-7.30
2019-01-30T02:45:19.145Z,-7.40
2019-01-30T02:47:47.728Z,-7.40
2019-01-30T02:50:17.903Z,-7.40
2019-01-30T02:52:46.397Z,-7.50
2019-01-30T02:55:19.024Z,-7.50
2019-01-30T02:57:47.545Z,-7.50
2019-01-30T03:00:18.942Z,-7.50
2019-01-30T03:02:47.533Z,-7.50
2019-01-30T03:05:15.990Z,-7.40
2019-01-30T03:07:44.548Z,-7.40
2019-01-30T03:10:15.538Z,-7.40
2019-01-30T03:12:44.067Z,-7.50
2019-01-30T03:15:14.877Z,-7.50
2019-01-30T03:17:43.276Z,-7.50
2019-01-30T03:20:14.849Z,-7.50
2019-01-30T03:22:43.662Z,-7.40
2019-01-30T03:25:14.591Z,-7.40
2019-01-30T03:27:43.086Z,-7.40
2019-01-30T03:30:17.429Z,-7.30
2019-01-30T03:32:45.971Z,-7.30
2019-01-30T03:35:14.597Z,-7.20
2019-01-30T03:37:43.086Z,-7.20
2019-01-30T03:40:14.447Z,-7.10
2019-01-30T03:42:42.893Z,-7.00
2019-01-30T03:45:14.185Z,-7.00
2019-01-30T03:47:42.678Z,-6.90
2019-01-30T03:50:13.272Z,-6.90
2019-01-30T03:52:41.872Z,-6.80
2019-01-30T03:55:12.839Z,-6.80
2019-01-30T03:57:41.418Z,-6.70
2019-01-30T04:00:13.033Z,-6.60
2019-01-30T04:02:41.478Z,-6.50
2019-01-30T04:05:09.891Z,-6.50
2019-01-30T04:07:38.487Z,-6.30
2019-01-30T04:10:21.461Z,-6.30
2019-01-30T04:12:50.083Z,-6.20
2019-01-30T04:15:18.866Z,-6.20
2019-01-30T04:17:47.385Z,-6.10
2019-01-30T04:20:17.852Z,-6.10
2019-01-30T04:22:46.861Z,-6.00
2019-01-30T04:25:16.991Z,-6.00
2019-01-30T04:27:45.513Z,-5.90
2019-01-30T04:30:24.794Z,-5.80
2019-01-30T04:32:53.311Z,-5.80
2019-01-30T04:35:21.803Z,-5.70
2019-01-30T04:37:50.246Z,-5.60
2019-01-30T04:40:22.262Z,-5.50
2019-01-30T04:42:50.880Z,-5.40
2019-01-30T04:45:24.525Z,-5.30
2019-01-30T04:47:52.973Z,-5.20
2019-01-30T04:50:21.549Z,-5.20
2019-01-30T04:52:50.033Z,-5.20
2019-01-30T04:55:18.813Z,-5.30
2019-01-30T04:57:47.243Z,-5.30
2019-01-30T05:00:18.854Z,-5.20
2019-01-30T05:02:47.360Z,-5.20
2019-01-30T05:05:15.891Z,-5.10
2019-01-30T05:07:44.378Z,-5.10
2019-01-30T05:10:13.875Z,-5.10
2019-01-30T05:12:42.442Z,-5.10
2019-01-30T05:15:16.818Z,-5.00
2019-01-30T05:17:45.373Z,-5.00
2019-01-30T05:20:16.334Z,-5.00
2019-01-30T05:22:44.996Z,-4.90
2019-01-30T05:25:13.880Z,-4.90
2019-01-30T05:27:42.370Z,-4.80
2019-01-30T05:30:13.814Z,-4.80
2019-01-30T05:32:42.266Z,-4.80
2019-01-30T05:35:10.766Z,-4.70
2019-01-30T05:37:39.217Z,-4.70
2019-01-30T05:40:11.091Z,-4.60
2019-01-30T05:42:39.519Z,-4.60
2019-01-30T05:45:11.087Z,-4.50
2019-01-30T05:47:39.548Z,-4.50
2019-01-30T05:50:09.618Z,-4.50
2019-01-30T05:52:38.146Z,-4.50
2019-01-30T05:55:11.386Z,-4.50
2019-01-30T05:57:39.907Z,-4.50
2019-01-30T06:00:28.054Z,-4.30
2019-01-30T06:02:56.511Z,-4.30
2019-01-30T06:05:25.007Z,-4.30
2019-01-30T06:07:53.479Z,-4.20
2019-01-30T06:10:21.978Z,-4.20
2019-01-30T06:12:50.436Z,-4.20
2019-01-30T06:15:19.832Z,-4.20
2019-01-30T06:17:48.340Z,-4.30
2019-01-30T06:20:20.767Z,-4.30
2019-01-30T06:22:49.279Z,-4.30
2019-01-30T06:25:17.792Z,-4.30
2019-01-30T06:27:46.301Z,-4.30
2019-01-30T06:30:22.993Z,-4.30
2019-01-30T06:32:51.669Z,-4.30
2019-01-30T06:35:20.187Z,-4.20
2019-01-30T06:37:48.778Z,-4.20
2019-01-30T06:40:19.850Z,-4.20
2019-01-30T06:42:48.385Z,-4.20
2019-01-30T06:45:16.888Z,-4.20
2019-01-30T06:47:45.749Z,-4.20
2019-01-30T06:50:15.328Z,-4.20
2019-01-30T06:52:43.763Z,-4.10
2019-01-30T06:55:12.213Z,-4.10
2019-01-30T06:57:40.675Z,-4.10
2019-01-30T07:00:14.651Z,-4.10
2019-01-30T07:02:43.320Z,-4.10
2019-01-30T07:05:12.017Z,-4.10
2019-01-30T07:07:40.438Z,-4.10
2019-01-30T07:10:14.691Z,-4.10
2019-01-30T07:12:43.107Z,-4.00
2019-01-30T07:15:12.203Z,-4.00
2019-01-30T07:17:40.643Z,-4.00
2019-01-30T07:20:12.234Z,-4.00
2019-01-30T07:22:40.699Z,-4.00
2019-01-30T07:25:12.273Z,-4.00
2019-01-30T07:27:40.787Z,-4.00
2019-01-30T07:30:27.191Z,-3.90
2019-01-30T07:32:55.729Z,-3.90
2019-01-30T07:35:24.167Z,-3.80
2019-01-30T10:44:01.958Z,0.80
2019-01-30T10:46:30.478Z,1.00
2019-01-30T10:48:58.932Z,1.40
2019-01-30T10:51:27.387Z,1.20
2019-01-30T10:53:55.810Z,1.30
2019-01-30T10:56:24.234Z,1.30
2019-01-30T10:58:52.754Z,1.40
2019-01-30T11:01:21.169Z,1.20
2019-01-30T11:03:57.020Z,1.30
2019-01-30T11:06:19.786Z,1.20
2019-01-30T11:08:48.250Z,1.40
2019-01-30T11:11:16.746Z,1.40
2019-01-30T11:13:45.228Z,1.30
2019-01-30T11:16:13.720Z,1.20
2019-01-30T11:18:42.177Z,1.10
2019-01-30T11:21:10.614Z,1.10
2019-01-30T11:23:39.052Z,1.20
2019-01-30T11:26:07.484Z,1.40
2019-01-30T11:28:35.943Z,1.60
2019-01-30T11:31:04.490Z,2.00
2019-01-30T11:33:33.001Z,2.10
2019-01-30T11:36:01.438Z,2.40
2019-01-30T11:38:29.890Z,2.30
2019-01-30T11:40:58.750Z,1.90
2019-01-30T11:43:27.248Z,1.80
2019-01-30T11:45:55.691Z,1.80
2019-01-30T11:48:24.153Z,2.00
2019-01-30T11:50:52.595Z,2.20
2019-01-30T11:53:21.041Z,2.30
2019-01-30T11:55:49.492Z,2.30
2019-01-30T11:58:17.944Z,2.20
2019-01-30T12:00:47.998Z,2.30
2019-01-30T12:03:16.620Z,2.30
2019-01-30T12:05:45.599Z,2.30
2019-01-30T12:08:14.077Z,2.40
2019-01-30T12:10:42.523Z,2.50
2019-01-30T12:13:11.080Z,2.60
2019-01-30T12:15:39.518Z,2.70
2019-01-30T12:18:08.105Z,2.90
2019-01-30T12:20:36.554Z,3.00
2019-01-30T12:23:05.712Z,3.00
2019-01-30T12:25:34.218Z,3.00
2019-01-30T12:28:02.643Z,3.10
2019-01-30T12:30:31.220Z,3.00
2019-01-30T12:32:59.638Z,2.80
2019-01-30T12:35:28.174Z,2.80
2019-01-30T12:37:56.588Z,2.80
2019-01-30T12:40:25.746Z,2.70
2019-01-30T12:42:54.318Z,2.70
2019-01-30T12:45:31.151Z,2.70
2019-01-30T12:47:59.735Z,2.70
2019-01-30T12:50:28.397Z,2.80
2019-01-30T12:52:56.971Z,2.90
2019-01-30T12:55:25.562Z,2.80
2019-01-30T12:57:54.244Z,2.70
2019-01-30T13:00:37.651Z,2.70
2019-01-30T13:03:06.250Z,2.70
2019-01-30T13:05:34.914Z,2.70
2019-01-30T13:08:03.508Z,2.60
2019-01-30T13:10:33.110Z,2.50
2019-01-30T13:13:01.624Z,2.50
2019-01-30T13:15:30.318Z,2.40
2019-01-30T13:17:59.202Z,2.40
2019-01-30T13:20:27.751Z,2.30
2019-01-30T13:22:56.258Z,2.30
2019-01-30T13:25:29.829Z,2.20
2019-01-30T13:27:58.530Z,2.30
2019-01-30T13:30:30.083Z,2.20
2019-01-30T13:32:58.764Z,2.20
2019-01-30T13:35:27.418Z,2.20
2019-01-30T13:37:55.865Z,2.20
2019-01-30T13:40:27.222Z,2.20
2019-01-30T13:42:55.710Z,2.20
2019-01-30T13:45:24.299Z,2.10
2019-01-30T13:47:52.800Z,2.10
2019-01-30T13:50:23.495Z,2.10
2019-01-30T13:52:52.047Z,2.00
2019-01-30T13:55:20.726Z,2.00
2019-01-30T13:57:49.290Z,2.00
2019-01-30T14:00:20.543Z,1.90
2019-01-30T14:02:49.203Z,2.00
2019-01-30T14:05:17.898Z,2.00
2019-01-30T14:07:46.556Z,2.00
2019-01-30T14:10:15.570Z,2.00
2019-01-30T14:12:44.119Z,1.90
2019-01-30T14:15:21.694Z,1.90
2019-01-30T14:17:50.269Z,1.90
2019-01-30T14:20:19.185Z,1.90
2019-01-30T14:22:47.683Z,1.90
2019-01-30T14:25:17.281Z,2.00
2019-01-30T14:27:45.795Z,1.90
2019-01-30T14:30:28.894Z,1.90
2019-01-30T14:32:57.623Z,2.00
2019-01-30T14:35:27.541Z,2.00
2019-01-30T14:37:56.068Z,2.10
2019-01-30T14:40:24.621Z,2.20
2019-01-30T14:42:53.775Z,2.30
2019-01-30T14:45:22.433Z,2.30
2019-01-30T14:47:51.723Z,2.30
2019-01-30T14:50:22.308Z,2.30
2019-01-30T14:52:50.874Z,2.30
2019-01-30T14:55:19.506Z,2.30
2019-01-30T14:57:48.731Z,2.30
2019-01-30T15:00:19.438Z,2.30
2019-01-30T15:02:47.915Z,2.20
2019-01-30T15:05:22.237Z,2.10
2019-01-30T15:07:48.050Z,2.10
2019-01-30T15:10:18.593Z,2.00
2019-01-30T15:12:47.072Z,2.00
2019-01-30T15:15:17.689Z,1.90
2019-01-30T15:17:46.184Z,1.80
2019-01-30T15:20:17.240Z,1.80
2019-01-30T15:22:45.900Z,1.70
2019-01-30T15:25:19.907Z,1.70
2019-01-30T15:27:48.512Z,1.60
2019-01-30T15:30:22.724Z,1.60
2019-01-30T15:32:51.238Z,1.50
2019-01-30T15:35:19.747Z,1.50
2019-01-30T15:37:48.270Z,1.40
2019-01-30T15:40:19.702Z,1.40
2019-01-30T15:42:49.461Z,1.40
2019-01-30T15:45:20.788Z,1.30
2019-01-30T15:47:49.270Z,1.30
2019-01-30T15:50:20.031Z,1.20
2019-01-30T15:52:48.614Z,1.20
2019-01-30T15:55:17.611Z,1.20
2019-01-30T15:57:49.156Z,1.20
2019-01-30T16:00:20.718Z,1.30
2019-01-30T16:02:49.131Z,1.20
2019-01-30T16:05:17.582Z,1.20
2019-01-30T16:07:45.995Z,1.10
2019-01-30T16:10:15.706Z,1.10
2019-01-30T16:12:45.672Z,1.10
2019-01-30T16:15:34.687Z,1.10
2019-01-30T16:18:03.555Z,1.10
2019-01-30T16:20:32.004Z,1.00
2019-01-30T16:23:00.438Z,1.00
2019-01-30T16:25:28.988Z,0.90
2019-01-30T16:27:57.467Z,0.90
2019-01-30T16:30:26.295Z,0.90
2019-01-30T16:32:54.719Z,0.90
2019-01-30T16:35:25.791Z,0.90
2019-01-30T16:37:54.390Z,0.90
2019-01-30T16:40:22.989Z,0.90
2019-01-30T16:42:54.240Z,0.90
2019-01-30T16:45:24.655Z,0.90
2019-01-30T16:47:53.260Z,0.80
2019-01-30T16:50:22.348Z,0.80
2019-01-30T16:52:50.938Z,0.80
2019-01-30T16:55:20.405Z,0.80
2019-01-30T16:57:49.036Z,0.80
2019-01-30T17:00:26.288Z,0.80
2019-01-30T17:02:55.470Z,0.80
2019-01-30T17:05:24.435Z,0.70
2019-01-30T17:07:53.255Z,0.60
2019-01-30T17:10:21.910Z,0.60
2019-01-30T17:12:50.354Z,0.60
2019-01-30T17:15:24.035Z,0.60
2019-01-30T17:17:52.626Z,0.60
2019-01-30T17:20:29.258Z,0.60
2019-01-30T17:22:58.009Z,0.60
2019-01-30T17:25:26.714Z,0.60
2019-01-30T17:27:55.262Z,0.60
2019-01-30T17:30:35.993Z,0.70
2019-01-30T17:33:04.978Z,0.70
2019-01-30T17:35:33.471Z,0.60
2019-01-30T17:38:02.009Z,0.60
2019-01-30T17:40:30.771Z,0.60
2019-01-30T17:42:59.202Z,0.50
2019-01-30T17:45:27.757Z,0.50
2019-01-30T17:47:56.460Z,0.40
2019-01-30T17:50:29.991Z,0.40
2019-01-30T17:52:58.518Z,0.40
2019-01-30T17:55:27.015Z,0.40
2019-01-30T17:57:55.455Z,0.40
2019-01-30T18:00:31.255Z,0.30
2019-01-30T18:02:59.763Z,0.30
2019-01-30T18:05:28.348Z,0.30
2019-01-30T18:07:56.782Z,0.30
2019-01-30T18:10:25.236Z,0.20
2019-01-30T18:12:53.771Z,0.20
2019-01-30T18:15:22.349Z,0.20
2019-01-30T18:17:50.766Z,0.10
2019-01-30T18:20:21.364Z,0.10
2019-01-30T18:22:50.552Z,0.20
2019-01-30T18:25:20.420Z,0.10
2019-01-30T18:27:48.991Z,0.10
2019-01-30T18:30:19.494Z,0.10
2019-01-30T18:32:47.938Z,0.10
2019-01-30T18:35:16.821Z,0.10
2019-01-30T18:37:45.792Z,0.10
2019-01-30T18:40:16.951Z,0.10
2019-01-30T18:42:46.027Z,0.10
2019-01-30T18:45:17.466Z,0.10
2019-01-30T18:47:45.895Z,0.10
2019-01-30T18:50:17.654Z,0.10
2019-01-30T18:52:46.150Z,0.10
2019-01-30T18:55:15.240Z,0.10
2019-01-30T18:57:44.011Z,0.00
2019-01-30T19:00:18.713Z,0.00
2019-01-30T19:02:47.650Z,0.00
2019-01-30T19:05:16.445Z,0.00
2019-01-30T19:07:44.863Z,0.00
2019-01-30T19:10:18.236Z,-0.10
2019-01-30T19:12:47.398Z,-0.10
2019-01-30T19:15:23.795Z,-0.10
2019-01-30T19:17:52.462Z,-0.10
2019-01-30T19:20:38.831Z,-0.10
2019-01-30T19:23:07.347Z,-0.20
2019-01-30T19:25:36.053Z,-0.30
2019-01-30T19:28:05.425Z,-0.30
2019-01-30T19:30:34.100Z,-0.30
2019-01-30T19:33:03.009Z,-0.30
2019-01-30T19:35:31.431Z,-0.40
2019-01-30T19:37:59.873Z,-0.50
2019-01-30T19:40:28.358Z,-0.60
2019-01-30T19:42:56.843Z,-0.60
2019-01-30T19:45:28.821Z,-0.70
2019-01-30T19:47:58.951Z,-0.60
2019-01-30T19:50:29.381Z,-0.70
2019-01-30T19:52:58.332Z,-0.80
2019-01-30T19:55:27.191Z,-0.80
2019-01-30T19:57:56.415Z,-0.80
2019-01-30T20:00:36.687Z,-0.90
2019-01-30T20:03:08.521Z,-0.90
2019-01-30T20:05:37.290Z,-1.10
2019-01-30T20:08:05.976Z,-1.20
2019-01-30T20:10:36.049Z,-1.30
2019-01-30T20:13:05.607Z,-1.30
2019-01-30T20:15:34.283Z,-1.40
2019-01-30T20:18:03.487Z,-1.50
2019-01-30T20:20:32.276Z,-1.60
2019-01-30T20:23:00.751Z,-1.60
2019-01-30T20:25:38.379Z,-1.70
2019-01-30T20:28:07.428Z,-1.70
2019-01-30T20:30:36.224Z,-1.70
2019-01-30T20:33:05.401Z,-1.80
2019-01-30T20:35:34.003Z,-1.90
2019-01-30T20:38:02.450Z,-2.00
2019-01-30T20:40:30.947Z,-2.00
2019-01-30T20:42:59.448Z,-2.10
2019-01-30T20:45:33.829Z,-2.20
2019-01-30T20:47:58.267Z,-2.40
2019-01-30T20:50:28.961Z,-2.50
2019-01-30T20:52:57.891Z,-2.60
2019-01-30T20:55:26.715Z,-2.60
2019-01-30T20:57:55.150Z,-2.70
2019-01-30T21:00:29.284Z,-2.80
2019-01-30T21:02:57.776Z,-2.90
2019-01-30T21:05:26.285Z,-3.00
2019-01-30T21:07:54.774Z,-3.10
2019-01-30T21:10:29.255Z,-3.20
2019-01-30T21:12:57.764Z,-3.20
2019-01-30T21:15:26.364Z,-3.30
2019-01-30T21:17:54.830Z,-3.40
2019-01-30T21:20:23.369Z,-3.50
2019-01-30T21:22:52.620Z,-3.60
2019-01-30T21:25:22.205Z,-3.60
2019-01-30T21:27:50.782Z,-3.70
2019-01-30T21:30:24.262Z,-3.80
2019-01-30T21:32:52.951Z,-3.90
2019-01-30T21:35:21.473Z,-3.90
2019-01-30T21:37:49.915Z,-4.00
2019-01-30T21:40:19.687Z,-4.00
2019-01-30T21:42:48.685Z,-4.10
2019-01-30T21:45:24.791Z,-4.20
2019-01-30T21:47:53.286Z,-4.30
2019-01-30T21:50:22.070Z,-4.40
2019-01-30T21:52:50.530Z,-4.50
2019-01-30T21:55:21.086Z,-4.50
2019-01-30T21:57:49.598Z,-4.60
2019-01-30T22:00:26.626Z,-4.70
2019-01-30T22:02:55.519Z,-4.70
2019-01-30T22:05:24.196Z,-4.80
2019-01-30T22:08:00.549Z,-4.90
2019-01-30T22:10:30.183Z,-4.90
2019-01-30T22:12:58.750Z,-5.00
2019-01-30T22:15:27.322Z,-5.00
2019-01-30T22:17:55.765Z,-5.10
2019-01-30T22:20:25.834Z,-5.20
2019-01-30T22:22:54.721Z,-5.20
2019-01-30T22:25:24.785Z,-5.30
2019-01-30T22:27:53.346Z,-5.40
2019-01-30T22:30:23.832Z,-5.50
2019-01-30T22:32:52.331Z,-5.50
2019-01-30T22:35:20.837Z,-5.60
2019-01-30T22:37:49.245Z,-5.60
2019-01-30T22:40:17.839Z,-5.70
2019-01-30T22:42:46.261Z,-5.70
2019-01-30T22:45:22.486Z,-5.80
2019-01-30T22:47:51.070Z,-5.80
2019-01-30T22:50:20.990Z,-5.90
2019-01-30T22:52:49.605Z,-6.00
2019-01-30T22:55:19.801Z,-6.00
2019-01-30T22:57:50.780Z,-6.00
2019-01-30T23:00:32.369Z,-6.10
2019-01-30T23:03:01.043Z,-6.10
2019-01-30T23:05:56.674Z,-6.10
2019-01-30T23:08:25.425Z,-6.20
2019-01-30T23:11:14.934Z,-6.20
2019-01-30T23:13:46.519Z,-6.30
2019-01-30T23:16:46.621Z,-6.30
2019-01-30T23:19:30.301Z,-6.40
2019-01-30T23:22:19.370Z,-6.40
2019-01-30T23:24:59.611Z,-6.50
2019-01-30T23:27:31.178Z,-6.50
2019-01-30T23:30:17.638Z,-6.50
2019-01-30T23:33:01.343Z,-6.60
2019-01-30T23:35:47.479Z,-6.50
2019-01-30T23:38:34.030Z,-6.50
2019-01-30T23:41:00.701Z,-6.60
2019-01-30T23:43:34.903Z,-6.70
2019-01-30T23:46:14.465Z,-6.70
2019-01-30T23:48:54.566Z,-6.80
2019-01-30T23:51:41.087Z,-6.80
2019-01-30T23:54:24.686Z,-6.90
2019-01-30T23:57:13.886Z,-6.90
2019-01-30T23:59:45.500Z,-7.00
